Central Point, OR

7:59 PM PST on December 20, 2014 (GMT -0800)
Rogue Valley International-Medford | Change Station
CLOSE
Current Station
Airport
Location: Medford,
Elevation: 1329 ft
Nearby Weather Stations

Elev 1329 ft 42.38 °N, 122.87 °W | Updated 6 minutes ago

Overcast
Overcast
48 °F
Feels Like 48 °F
N
0
Wind Variable Wind from North

Today
High -- | Low -- °F
--% Chance of Precip.
Yesterday
High -- | Low -- °F
Precip. -- in
7:36 AM 4:41 PM
Waning Crescent, 1% visible
Pressure 29.99 in
Visibility 5.0 miles
Clouds Overcast 3600 ft
Dew Point 47 °F
Humidity 96%
Rainfall 0.20 in
Snow Depth Not available.
UV 0 out of 12
Pollen .60 out of 12
Air Quality Not available.
Flu Activity Not available.
METAR KMFR 210353Z 00000KT 5SM BR OVC036 09/08 A2998 RMK AO2 RAE47 SLP154 P0000 T00890083

More Conditions Fewer Conditions

Pressure 29.99 in
Visibility 5.0 miles
Clouds Overcast 3600 ft
Dew Point 47 °F
Humidity 96%
Rainfall 0.20 in
Snow Depth Not available.
UV 0 out of 12
Pollen .60 out of 12
Air Quality Not available.
Flu Activity Not available.
METAR KMFR 210353Z 00000KT 5SM BR OVC036 09/08 A2998 RMK AO2 RAE47 SLP154 P0000 T00890083

More Conditions Fewer Conditions

10-Day Weather Forecast

Almanac

Astronomy

Dec. 20, 2014 Rise Set
Actual Time
Civil Twilight
Nautical Twilight
Astronomical Twilight
Moon
Length of Visible Light
Length of Day
Tomorrow will be .
, % of the Moon is Illuminated

Today's Extremes

State Highs State Lows

Community

WunderPhotos

Upload Photos

1,779,354 photos uploaded!

WunderBlogs® & News

Nearby

Air Quality

  Air Quality AQ Index Pollutant
Not available.

Snow Depth

Station Depth Elevation

Earthquake Activity

City Distance Mag. Time & Date
Minimum magnitude displayed is 2.5.

Coastal Water Temperatures

Place Temperature

Nearby Weather Stations